Time;durP1;ratioP1;P1;durP2;ratioP2;P2;SDS_P1;SDS_P2;PMS_P1;PMS_P2;Temp;Humidity;BMP_temperature;BMP_pressure;BME280_temperature;BME280_humidity;BME280_pressure;Samples;Min_cycle;Max_cycle;Signal;HPM_P1;HPM_P2
2021/09/14 00:01:14;;;;;;;7.82;4.15;;;17.80;99.90;;;;;;5070375;28;20032;-73
2021/09/14 00:03:40;;;;;;;6.13;3.75;;;17.80;99.90;;;;;;5071507;28;20029;-72
2021/09/14 00:06:06;;;;;;;5.00;3.83;;;17.80;99.90;;;;;;5069994;28;20492;-72
2021/09/14 00:08:32;;;;;;;5.05;3.60;;;17.80;99.90;;;;;;5053909;28;20488;-73
2021/09/14 00:10:58;;;;;;;5.55;3.70;;;17.70;99.90;;;;;;5069967;28;20036;-72
2021/09/14 00:13:24;;;;;;;8.18;4.00;;;17.80;99.90;;;;;;5072320;28;20028;-72
2021/09/14 00:15:50;;;;;;;6.55;4.32;;;17.80;99.90;;;;;;5074537;28;20068;-72
2021/09/14 00:18:16;;;;;;;6.53;3.60;;;17.80;99.90;;;;;;5073669;28;20041;-72
2021/09/14 00:20:42;;;;;;;6.82;4.53;;;17.70;99.90;;;;;;5090506;28;20532;-72
2021/09/14 00:23:08;;;;;;;5.68;3.95;;;17.60;99.90;;;;;;5090618;28;20465;-72
2021/09/14 00:25:36;;;;;;;6.03;3.83;;;17.60;99.90;;;;;;5075008;28;20037;-72
2021/09/14 00:28:03;;;;;;;6.40;4.50;;;17.50;99.90;;;;;;5073677;28;20029;-72
2021/09/14 00:30:29;;;;;;;7.55;4.15;;;17.50;99.90;;;;;;5074970;28;20036;-72
2021/09/14 00:32:54;;;;;;;6.65;4.40;;;17.50;99.90;;;;;;5074446;28;20036;-72
2021/09/14 00:35:21;;;;;;;6.40;4.20;;;17.60;99.90;;;;;;5073714;28;20032;-72
2021/09/14 00:37:46;;;;;;;6.13;4.10;;;17.50;99.90;;;;;;5073306;28;20029;-72
2021/09/14 00:40:12;;;;;;;6.63;4.70;;;17.50;99.90;;;;;;5074704;28;20043;-71
2021/09/14 00:42:38;;;;;;;6.47;4.65;;;17.30;99.90;;;;;;5074436;28;20029;-71
2021/09/14 00:45:06;;;;;;;5.95;4.18;;;17.30;99.90;;;;;;5073166;28;20105;-71
2021/09/14 00:47:32;;;;;;;5.05;4.00;;;17.30;99.90;;;;;;5074367;28;20474;-71
2021/09/14 00:49:59;;;;;;;7.95;4.95;;;17.40;99.90;;;;;;5074340;28;20052;-71
2021/09/14 00:52:25;;;;;;;7.65;4.80;;;17.30;99.90;;;;;;5073071;28;20043;-71
2021/09/14 00:54:51;;;;;;;6.93;4.80;;;17.20;99.90;;;;;;5073136;28;20029;-71
2021/09/14 00:57:19;;;;;;;8.60;4.90;;;17.10;99.90;;;;;;5074142;28;20028;-71
2021/09/14 00:59:45;;;;;;;7.25;4.82;;;16.90;99.90;;;;;;5073004;28;20036;-71
2021/09/14 01:02:12;;;;;;;7.68;5.18;;;16.80;99.90;;;;;;5073091;28;20078;-71
2021/09/14 01:04:38;;;;;;;7.03;4.95;;;16.90;99.90;;;;;;5072918;28;20032;-71
2021/09/14 01:07:04;;;;;;;6.55;4.95;;;16.90;99.90;;;;;;5072918;28;20093;-71
2021/09/14 01:09:33;;;;;;;9.52;5.10;;;16.90;99.90;;;;;;5074198;28;20043;-71
2021/09/14 01:11:59;;;;;;;7.45;5.05;;;16.90;99.90;;;;;;5072710;28;20477;-71
2021/09/14 01:14:25;;;;;;;9.55;4.97;;;16.60;99.90;;;;;;5072681;28;20043;-71
2021/09/14 01:16:51;;;;;;;7.40;4.80;;;16.70;99.90;;;;;;5073753;28;20044;-71
2021/09/14 01:19:17;;;;;;;8.43;5.22;;;16.80;99.90;;;;;;5073816;28;20117;-71
2021/09/14 01:21:43;;;;;;;11.15;5.63;;;16.60;99.90;;;;;;5072512;28;20024;-71
2021/09/14 01:24:09;;;;;;;9.70;4.80;;;16.70;99.90;;;;;;5072530;28;20039;-71
2021/09/14 01:26:35;;;;;;;7.00;4.88;;;16.80;99.90;;;;;;5073659;28;20516;-72
2021/09/14 01:29:09;;;;;;;12.15;5.88;;;16.80;99.90;;;;;;5073481;28;20036;-72
2021/09/14 01:31:36;;;;;;;8.48;5.18;;;16.70;99.90;;;;;;5072424;28;20144;-71
2021/09/14 01:34:03;;;;;;;9.18;5.32;;;16.80;99.90;;;;;;5072433;28;20024;-72
2021/09/14 01:36:29;;;;;;;8.15;5.65;;;16.70;99.90;;;;;;5073566;28;20086;-72
2021/09/14 01:38:54;;;;;;;7.07;5.38;;;16.80;99.90;;;;;;5073342;28;20029;-72
2021/09/14 01:41:20;;;;;;;10.40;5.40;;;16.80;99.90;;;;;;5073454;28;20489;-72
2021/09/14 01:43:47;;;;;;;9.68;5.35;;;16.70;99.90;;;;;;5072122;28;20032;-72
2021/09/14 01:46:13;;;;;;;7.68;5.60;;;16.70;99.90;;;;;;5073413;28;20052;-72
2021/09/14 01:48:39;;;;;;;9.80;5.20;;;16.60;99.90;;;;;;5073247;28;20503;-72
2021/09/14 01:51:04;;;;;;;8.43;5.00;;;16.60;99.90;;;;;;5071944;28;20470;-72
2021/09/14 01:53:30;;;;;;;10.40;5.57;;;16.60;99.90;;;;;;5071822;28;20041;-72
2021/09/14 01:56:05;;;;;;;11.00;6.00;;;16.60;99.90;;;;;;5073113;28;20032;-72
2021/09/14 01:58:31;;;;;;;10.20;5.32;;;16.50;99.90;;;;;;5073065;28;20033;-72
2021/09/14 02:03:30;;;;;;;9.55;5.80;;;16.50;99.90;;;;;;5073200;28;20385;-72
2021/09/14 02:44:21;;;;;;;9.63;5.88;;;16.70;99.90;;;;;;5071000;28;20063;-71
2021/09/14 03:00:34;;;;;;;11.27;6.53;;;16.50;99.90;;;;;;5072348;28;20037;-71
2021/09/14 03:03:00;;;;;;;8.70;6.32;;;16.50;99.90;;;;;;5070894;28;20036;-71
2021/09/14 03:05:28;;;;;;;10.05;6.00;;;16.40;99.90;;;;;;5072041;28;20059;-71
2021/09/14 03:07:54;;;;;;;10.82;6.60;;;16.50;99.90;;;;;;5071289;28;20040;-72
2021/09/14 03:10:25;;;;;;;11.15;6.57;;;16.50;99.90;;;;;;5071947;28;20040;-72
2021/09/14 03:12:50;;;;;;;10.45;6.88;;;16.50;99.90;;;;;;5071108;28;20503;-72
2021/09/14 03:15:16;;;;;;;10.23;7.00;;;16.50;99.90;;;;;;5071797;28;20045;-72
2021/09/14 03:17:42;;;;;;;10.57;6.88;;;16.50;99.90;;;;;;5070922;28;20459;-71
2021/09/14 03:20:08;;;;;;;11.55;6.00;;;16.40;99.90;;;;;;5071765;28;20037;-72
2021/09/14 03:22:34;;;;;;;10.30;6.40;;;16.50;99.90;;;;;;5071936;28;20031;-71
2021/09/14 03:25:00;;;;;;;8.80;6.43;;;16.50;99.90;;;;;;5070929;28;20390;-72
2021/09/14 03:27:26;;;;;;;13.88;6.60;;;16.50;99.90;;;;;;5070560;28;20060;-72
2021/09/14 03:29:51;;;;;;;14.60;7.82;;;16.40;99.90;;;;;;5070577;28;20033;-72
2021/09/14 03:32:17;;;;;;;10.57;6.68;;;16.40;99.90;;;;;;5053879;28;20056;-72
2021/09/14 03:34:43;;;;;;;11.25;7.00;;;16.30;99.90;;;;;;5070537;28;20064;-71
2021/09/14 03:37:09;;;;;;;9.70;7.00;;;16.20;99.90;;;;;;5071507;28;20033;-72
2021/09/14 03:39:34;;;;;;;13.23;7.03;;;16.10;99.90;;;;;;5087405;28;20032;-72
2021/09/14 03:42:03;;;;;;;8.57;5.82;;;16.10;99.90;;;;;;5071923;28;20047;-72
2021/09/14 03:44:28;;;;;;;9.70;6.70;;;16.20;99.90;;;;;;5071398;28;20401;-72
2021/09/14 03:46:54;;;;;;;10.13;6.53;;;16.10;99.90;;;;;;5071792;28;20116;-71
2021/09/14 03:49:20;;;;;;;11.38;6.65;;;16.00;99.90;;;;;;5075183;28;20039;-71
2021/09/14 03:51:46;;;;;;;8.55;6.32;;;16.10;99.90;;;;;;5074082;28;20106;-72
2021/09/14 03:54:11;;;;;;;11.30;6.95;;;16.10;99.90;;;;;;5076997;28;20370;-71
2021/09/14 03:56:37;;;;;;;13.07;6.60;;;16.10;99.90;;;;;;5084043;28;20028;-71
2021/09/14 03:59:04;;;;;;;10.60;6.72;;;16.10;99.90;;;;;;5075627;28;20031;-70
2021/09/14 04:01:34;;;;;;;10.25;7.10;;;16.10;99.90;;;;;;5078025;28;20032;-70
2021/09/14 04:04:08;;;;;;;11.98;7.15;;;16.20;99.90;;;;;;5091123;28;20017;-70
2021/09/14 04:06:40;;;;;;;13.15;7.22;;;16.20;99.90;;;;;;5074015;28;20058;-71
2021/09/14 04:09:06;;;;;;;9.80;6.70;;;16.10;99.90;;;;;;5057788;28;20036;-71
2021/09/14 04:11:32;;;;;;;10.57;7.40;;;16.20;99.90;;;;;;5074902;28;20035;-70
2021/09/14 04:13:58;;;;;;;13.05;7.72;;;16.10;99.90;;;;;;5072408;28;20025;-70
2021/09/14 04:16:24;;;;;;;12.85;7.28;;;16.10;99.90;;;;;;5074698;28;20179;-70
2021/09/14 04:18:50;;;;;;;14.93;7.03;;;16.20;99.90;;;;;;5075101;28;20035;-73
2021/09/14 04:21:17;;;;;;;9.02;6.35;;;16.10;99.90;;;;;;5074991;28;20046;-69
2021/09/14 04:23:45;;;;;;;17.85;8.20;;;16.10;99.90;;;;;;5075512;28;20025;-69
2021/09/14 04:26:11;;;;;;;14.35;8.40;;;16.10;99.90;;;;;;5093885;28;20087;-69
2021/09/14 04:28:37;;;;;;;14.90;9.30;;;16.10;99.90;;;;;;5095280;28;20429;-71
2021/09/14 04:31:02;;;;;;;12.18;8.35;;;15.90;99.90;;;;;;5095163;28;20059;-69
2021/09/14 04:33:28;;;;;;;19.77;10.18;;;15.90;99.90;;;;;;5094871;28;20032;-71
2021/09/14 04:35:54;;;;;;;12.50;7.30;;;15.90;99.90;;;;;;5093685;28;20073;-69
2021/09/14 04:38:20;;;;;;;12.15;7.65;;;16.00;99.90;;;;;;5094893;28;20135;-70
2021/09/14 04:40:45;;;;;;;12.25;7.93;;;16.00;99.90;;;;;;5093481;28;20426;-69
2021/09/14 04:43:11;;;;;;;13.90;7.97;;;15.90;99.90;;;;;;5094904;28;20503;-71
2021/09/14 04:45:37;;;;;;;11.55;7.97;;;16.00;99.90;;;;;;5093388;28;20035;-71
2021/09/14 04:48:03;;;;;;;14.23;7.47;;;16.10;99.90;;;;;;5093452;28;20028;-71
2021/09/14 04:50:29;;;;;;;10.38;7.55;;;16.00;99.90;;;;;;5094392;28;20032;-71
2021/09/14 04:52:54;;;;;;;10.70;7.72;;;16.00;99.90;;;;;;5093392;28;20039;-71
2021/09/14 04:55:20;;;;;;;11.52;7.57;;;15.90;99.90;;;;;;5073173;28;20037;-71
2021/09/14 04:57:46;;;;;;;10.98;7.32;;;15.80;99.90;;;;;;5074213;28;20112;-76
2021/09/14 05:00:14;;;;;;;11.05;7.50;;;15.90;99.90;;;;;;5074098;28;20403;-69
2021/09/14 05:02:40;;;;;;;11.27;8.05;;;15.90;99.90;;;;;;5074413;28;20056;-72
2021/09/14 05:05:06;;;;;;;12.70;7.80;;;15.70;99.90;;;;;;5074080;28;20064;-72
2021/09/14 05:07:32;;;;;;;11.68;8.13;;;15.60;99.90;;;;;;5074296;28;20036;-73
2021/09/14 05:09:58;;;;;;;11.40;8.35;;;15.60;99.90;;;;;;5074272;28;20033;-73
2021/09/14 05:12:24;;;;;;;10.90;7.97;;;15.60;99.90;;;;;;5092602;28;20111;-72
2021/09/14 05:14:49;;;;;;;12.38;7.53;;;15.60;99.90;;;;;;5092884;28;20040;-72
2021/09/14 05:17:15;;;;;;;13.32;8.13;;;15.60;99.90;;;;;;5092920;28;20024;-73
2021/09/14 05:19:42;;;;;;;13.63;8.02;;;15.70;99.90;;;;;;5094250;28;20530;-73
2021/09/14 05:22:08;;;;;;;17.83;8.38;;;15.50;99.90;;;;;;5093042;28;20390;-73
2021/09/14 05:24:34;;;;;;;16.15;8.40;;;15.60;99.90;;;;;;5093370;28;20039;-73
2021/09/14 05:27:01;;;;;;;13.70;8.70;;;15.50;99.90;;;;;;5093999;28;20044;-73
2021/09/14 05:29:27;;;;;;;11.68;7.95;;;15.60;99.90;;;;;;5092511;28;20072;-73
2021/09/14 05:31:54;;;;;;;14.88;7.68;;;15.50;99.90;;;;;;5094013;28;20115;-72
2021/09/14 05:34:24;;;;;;;14.95;8.73;;;15.60;99.90;;;;;;5092750;28;20040;-73
2021/09/14 05:36:50;;;;;;;11.95;7.70;;;15.70;99.90;;;;;;5093679;28;20039;-72
2021/09/14 05:39:16;;;;;;;12.80;8.07;;;15.80;99.90;;;;;;5093401;28;20032;-73
2021/09/14 05:41:42;;;;;;;14.05;7.43;;;15.90;99.90;;;;;;5092147;28;20028;-73
2021/09/14 05:44:09;;;;;;;11.38;7.63;;;15.90;99.90;;;;;;5092481;28;20077;-73
2021/09/14 05:46:36;;;;;;;12.10;7.88;;;15.90;99.90;;;;;;5093491;28;20119;-72
2021/09/14 05:49:02;;;;;;;14.48;8.07;;;15.90;99.90;;;;;;5092307;28;20032;-73
2021/09/14 05:51:28;;;;;;;13.18;8.10;;;15.90;99.90;;;;;;5092333;28;20435;-74
2021/09/14 05:53:54;;;;;;;14.27;7.82;;;15.90;99.90;;;;;;5090320;28;20461;-72
2021/09/14 05:56:20;;;;;;;14.38;7.93;;;15.80;99.90;;;;;;5093231;28;20468;-69
2021/09/14 05:58:45;;;;;;;11.57;7.85;;;15.90;99.90;;;;;;5092843;28;20032;-69
2021/09/14 06:01:13;;;;;;;11.35;7.30;;;15.90;99.90;;;;;;5058393;28;20038;-69
2021/09/14 06:03:39;;;;;;;17.38;8.57;;;16.00;99.90;;;;;;5093296;28;20438;-72
2021/09/14 06:06:10;;;;;;;10.77;7.05;;;16.00;99.90;;;;;;5093065;28;20032;-71
2021/09/14 06:08:36;;;;;;;9.18;6.97;;;16.00;99.90;;;;;;5091608;28;20024;-73
2021/09/14 06:11:02;;;;;;;11.18;7.15;;;16.10;99.90;;;;;;5092274;28;20502;-70
2021/09/14 06:13:29;;;;;;;9.93;7.65;;;16.20;99.90;;;;;;5091515;28;20542;-70
2021/09/14 06:15:54;;;;;;;12.25;7.93;;;16.10;99.90;;;;;;5093052;28;20048;-70
2021/09/14 06:18:20;;;;;;;9.80;7.47;;;16.10;99.90;;;;;;5092679;28;20394;-70
2021/09/14 06:20:46;;;;;;;11.07;6.80;;;16.10;99.90;;;;;;5091597;28;20032;-70
2021/09/14 06:23:12;;;;;;;11.93;6.95;;;16.30;99.90;;;;;;5092972;28;20028;-70
2021/09/14 06:25:37;;;;;;;10.00;6.80;;;16.40;99.90;;;;;;5092118;28;20028;-70
2021/09/14 06:28:06;;;;;;;11.50;7.47;;;16.30;99.90;;;;;;5092745;28;20119;-71
2021/09/14 06:30:32;;;;;;;9.27;7.00;;;16.30;99.90;;;;;;5092968;28;20032;-70
2021/09/14 06:32:58;;;;;;;12.27;8.23;;;16.50;99.90;;;;;;5091786;28;20055;-71
2021/09/14 06:35:24;;;;;;;15.48;7.68;;;16.60;99.90;;;;;;5092273;28;20064;-71
2021/09/14 06:37:50;;;;;;;11.50;7.90;;;16.70;99.90;;;;;;5091354;28;20035;-71
2021/09/14 06:40:15;;;;;;;14.40;7.00;;;16.60;99.90;;;;;;5092604;28;20486;-70
2021/09/14 06:42:41;;;;;;;12.07;7.72;;;16.60;99.90;;;;;;5092604;28;20039;-71
2021/09/14 06:45:10;;;;;;;9.75;7.32;;;16.50;99.90;;;;;;5091075;28;20043;-70
2021/09/14 06:47:36;;;;;;;10.98;8.13;;;16.40;99.90;;;;;;5090595;28;20028;-70
2021/09/14 06:50:05;;;;;;;11.02;7.55;;;16.50;99.90;;;;;;5091263;28;20038;-71
2021/09/14 06:52:30;;;;;;;12.13;7.50;;;16.50;99.90;;;;;;5092171;28;20032;-70
2021/09/14 06:54:56;;;;;;;9.35;7.03;;;16.60;99.90;;;;;;5074274;28;20088;-70
2021/09/14 06:57:23;;;;;;;10.70;7.85;;;16.80;99.90;;;;;;5092393;28;20024;-69
2021/09/14 06:59:50;;;;;;;11.43;7.05;;;17.00;99.90;;;;;;5092432;28;20024;-69
2021/09/14 07:02:16;;;;;;;10.73;6.53;;;17.10;99.90;;;;;;5092301;28;20051;-69
2021/09/14 07:04:42;;;;;;;13.43;7.72;;;17.10;99.90;;;;;;5090906;28;20469;-69
2021/09/14 07:07:08;;;;;;;16.30;8.43;;;17.10;99.90;;;;;;5092528;28;20036;-70
2021/09/14 07:09:36;;;;;;;16.48;8.30;;;17.10;99.90;;;;;;5091883;28;20028;-69
2021/09/14 07:12:02;;;;;;;14.15;8.38;;;17.10;99.90;;;;;;5092543;28;20465;-69
2021/09/14 07:14:28;;;;;;;12.73;8.13;;;17.30;99.90;;;;;;5092036;28;20035;-68
2021/09/14 07:16:53;;;;;;;15.23;9.10;;;17.30;99.90;;;;;;5092030;28;20052;-69
2021/09/14 07:19:19;;;;;;;12.73;8.10;;;17.50;99.90;;;;;;5092087;28;20032;-69
2021/09/14 07:21:46;;;;;;;13.68;8.63;;;17.70;99.90;;;;;;5092144;28;20032;-68
2021/09/14 07:24:11;;;;;;;13.85;8.40;;;17.90;99.90;;;;;;5094838;28;20485;-68
2021/09/14 07:26:37;;;;;;;18.13;8.25;;;17.90;99.90;;;;;;5096155;28;20040;-69
2021/09/14 07:29:03;;;;;;;27.42;8.95;;;18.00;99.90;;;;;;5095048;28;20020;-68
2021/09/14 07:31:30;;;;;;;22.25;9.20;;;18.10;99.90;;;;;;5094673;28;20119;-68
2021/09/14 07:33:57;;;;;;;17.75;8.43;;;18.20;99.90;;;;;;5095941;28;20036;-69
2021/09/14 07:36:23;;;;;;;18.90;9.07;;;18.20;99.90;;;;;;5094686;28;20060;-68
2021/09/14 07:38:48;;;;;;;17.52;10.13;;;18.20;99.90;;;;;;5094682;28;20059;-69
2021/09/14 07:41:14;;;;;;;16.52;8.88;;;18.30;99.90;;;;;;5096182;28;20081;-69
2021/09/14 07:43:40;;;;;;;16.30;8.48;;;18.30;99.90;;;;;;5094854;28;20118;-70
2021/09/14 07:46:09;;;;;;;19.48;8.82;;;18.40;99.90;;;;;;5111488;28;20463;-69
2021/09/14 07:48:36;;;;;;;24.30;10.77;;;18.50;99.90;;;;;;5095601;28;20028;-68
2021/09/14 07:51:03;;;;;;;22.55;10.65;;;18.60;99.90;;;;;;5095679;28;20040;-68
2021/09/14 07:53:29;;;;;;;23.15;10.32;;;18.70;99.90;;;;;;5094369;28;20318;-69
2021/09/14 07:55:55;;;;;;;15.50;10.18;;;18.80;99.90;;;;;;5095685;28;20034;-69
2021/09/14 07:58:20;;;;;;;23.40;10.18;;;18.80;99.90;;;;;;5094548;28;20043;-69
2021/09/14 08:00:46;;;;;;;26.48;10.55;;;19.00;99.90;;;;;;5095850;28;20040;-69
2021/09/14 08:03:12;;;;;;;23.13;10.57;;;19.10;99.90;;;;;;5077348;28;20128;-69
2021/09/14 08:05:42;;;;;;;23.02;10.55;;;18.90;99.90;;;;;;5084152;28;20033;-69
2021/09/14 08:08:10;;;;;;;17.45;9.48;;;19.00;99.90;;;;;;5075141;28;20036;-69
2021/09/14 08:10:36;;;;;;;18.70;9.70;;;19.20;99.90;;;;;;5075035;28;20086;-69
2021/09/14 08:13:02;;;;;;;16.45;9.60;;;19.30;99.90;;;;;;5075137;28;20025;-69
2021/09/14 08:15:28;;;;;;;19.67;10.55;;;19.30;99.90;;;;;;5073049;28;20135;-69
2021/09/14 08:17:56;;;;;;;17.88;10.48;;;19.30;99.90;;;;;;5073678;28;20112;-69
2021/09/14 08:20:22;;;;;;;14.80;9.85;;;19.40;99.90;;;;;;5055799;28;20036;-68
2021/09/14 08:22:51;;;;;;;13.98;8.90;;;19.60;99.90;;;;;;5073747;28;20077;-68
2021/09/14 08:25:17;;;;;;;18.45;9.18;;;19.90;99.90;;;;;;5073480;28;20036;-68
2021/09/14 08:27:43;;;;;;;16.10;9.15;;;20.30;99.90;;;;;;5073956;28;20538;-68
2021/09/14 08:30:09;;;;;;;13.10;8.80;;;20.40;99.90;;;;;;5073492;28;20107;-68
2021/09/14 08:32:35;;;;;;;21.13;9.45;;;20.50;99.90;;;;;;5073472;28;20033;-68
2021/09/14 08:35:01;;;;;;;13.95;8.70;;;20.60;99.90;;;;;;5073225;28;20043;-68
2021/09/14 08:37:27;;;;;;;16.05;9.13;;;20.50;99.90;;;;;;5071958;28;20445;-68
2021/09/14 08:39:53;;;;;;;17.92;9.30;;;20.50;99.90;;;;;;5073108;28;20086;-68
2021/09/14 08:42:20;;;;;;;14.85;9.23;;;20.60;99.90;;;;;;5073814;28;20032;-68
2021/09/14 08:44:46;;;;;;;14.07;8.40;;;20.70;99.90;;;;;;5073273;28;20032;-68
2021/09/14 08:47:14;;;;;;;14.68;9.10;;;21.00;99.90;;;;;;5055847;28;20025;-67
2021/09/14 08:49:40;;;;;;;15.65;8.68;;;21.10;99.90;;;;;;5072978;28;20047;-67
2021/09/14 08:52:06;;;;;;;15.25;8.95;;;21.10;99.90;;;;;;5071892;28;20102;-67
2021/09/14 08:54:33;;;;;;;17.05;9.98;;;21.10;99.90;;;;;;5072951;28;20036;-67
2021/09/14 08:56:58;;;;;;;18.73;9.88;;;21.00;99.90;;;;;;5073552;28;20036;-67
2021/09/14 08:59:32;;;;;;;12.63;9.07;;;20.60;99.90;;;;;;5073112;28;20564;-67
2021/09/14 09:02:02;;;;;;;16.85;8.70;;;20.60;99.90;;;;;;5072028;28;20025;-68
2021/09/14 09:04:28;;;;;;;14.80;9.50;;;20.70;99.90;;;;;;5072816;28;20029;-68
2021/09/14 09:06:53;;;;;;;18.75;9.43;;;20.90;99.90;;;;;;5073142;28;20111;-68
2021/09/14 09:09:23;;;;;;;14.40;10.05;;;21.00;99.90;;;;;;5071733;28;20036;-67
2021/09/14 09:12:09;;;;;;;17.90;10.20;;;21.20;99.90;;;;;;5073121;28;20039;-68
2021/09/14 09:14:42;;;;;;;15.20;9.60;;;21.30;99.90;;;;;;5071688;28;20041;-67
2021/09/14 09:17:18;;;;;;;14.33;9.30;;;21.20;99.90;;;;;;5033870;28;1109713;-67
2021/09/14 09:19:57;;;;;;;12.65;8.52;;;21.30;99.90;;;;;;5073182;28;20064;-68
2021/09/14 09:22:25;;;;;;;14.48;9.35;;;21.40;99.90;;;;;;5073571;28;20036;-67
2021/09/14 09:24:54;;;;;;;14.23;7.68;;;21.50;99.90;;;;;;5073347;28;20036;-68
2021/09/14 09:27:24;;;;;;;19.30;9.25;;;21.60;99.90;;;;;;5072371;28;20416;-68
2021/09/14 09:30:09;;;;;;;15.05;8.10;;;21.90;99.90;;;;;;5073583;28;20036;-69
2021/09/14 09:32:50;;;;;;;11.60;7.63;;;21.90;99.90;;;;;;5073394;28;20063;-68
2021/09/14 09:35:28;;;;;;;13.82;7.93;;;22.10;99.90;;;;;;5072607;28;20024;-68
2021/09/14 09:37:58;;;;;;;12.90;7.22;;;22.20;99.90;;;;;;5072266;28;20477;-68
2021/09/14 09:40:41;;;;;;;12.63;7.25;;;22.40;99.90;;;;;;5071659;28;20401;-71
2021/09/14 09:43:09;;;;;;;12.02;7.63;;;22.30;99.90;;;;;;5088930;28;20035;-68
2021/09/14 09:45:46;;;;;;;10.32;7.18;;;22.10;99.90;;;;;;5071100;28;20431;-68
2021/09/14 09:48:15;;;;;;;11.52;7.60;;;22.40;99.90;;;;;;5073573;28;20037;-71
2021/09/14 09:50:43;;;;;;;12.10;7.32;;;22.50;99.90;;;;;;5055411;28;20029;-69
2021/09/14 09:53:11;;;;;;;10.57;7.03;;;22.50;99.90;;;;;;5071791;28;20082;-72
2021/09/14 09:55:39;;;;;;;11.48;7.75;;;22.60;99.90;;;;;;5071543;28;20020;-69
2021/09/14 09:58:06;;;;;;;11.98;6.35;;;23.00;99.90;;;;;;5072973;28;20656;-69
2021/09/14 10:00:40;;;;;;;12.43;7.22;;;23.10;99.90;;;;;;5073976;28;20029;-71
2021/09/14 10:03:16;;;;;;;9.85;6.10;;;23.20;99.90;;;;;;5071750;28;20481;-73
2021/09/14 10:05:45;;;;;;;11.02;5.45;;;23.30;99.90;;;;;;5072711;28;20433;-72
2021/09/14 10:08:15;;;;;;;7.93;5.40;;;23.40;99.90;;;;;;5071611;28;20119;-72
2021/09/14 10:10:42;;;;;;;8.48;5.50;;;23.50;99.90;;;;;;5055133;28;20032;-69
2021/09/14 10:13:10;;;;;;;9.85;6.32;;;23.60;99.90;;;;;;5071678;28;20036;-71
2021/09/14 10:15:44;;;;;;;8.25;5.35;;;23.40;99.90;;;;;;5054662;28;20089;-69
2021/09/14 10:18:11;;;;;;;8.73;5.35;;;23.80;99.90;;;;;;5072429;28;20497;-70
2021/09/14 10:20:43;;;;;;;9.82;5.47;;;23.70;99.90;;;;;;5071509;28;20435;-68
2021/09/14 10:23:31;;;;;;;17.25;6.55;;;23.80;99.90;;;;;;5071382;28;20051;-68
2021/09/14 10:26:34;;;;;;;8.27;5.82;;;23.90;99.90;;;;;;5071197;28;20040;-70
2021/09/14 10:29:15;;;;;;;9.65;5.97;;;24.20;99.90;;;;;;5058268;28;20025;-68
2021/09/14 10:31:42;;;;;;;8.63;5.50;;;24.30;99.90;;;;;;5071365;28;20067;-68
2021/09/14 10:34:13;;;;;;;9.45;4.68;;;24.30;99.90;;;;;;5072732;28;20039;-68
2021/09/14 10:36:42;;;;;;;8.52;4.85;;;24.60;99.90;;;;;;5071007;28;20031;-68
2021/09/14 10:39:23;;;;;;;7.35;4.80;;;24.90;99.90;;;;;;5072514;28;20031;-68
2021/09/14 10:41:53;;;;;;;9.85;4.75;;;24.50;99.90;;;;;;5070978;28;20115;-69
2021/09/14 10:44:29;;;;;;;9.20;4.83;;;24.80;99.90;;;;;;5071331;28;20081;-68
2021/09/14 10:47:06;;;;;;;8.23;4.35;;;25.10;99.90;;;;;;5071046;28;20697;-68
2021/09/14 10:49:50;;;;;;;8.15;4.80;;;25.50;99.90;;;;;;5070703;28;20090;-69
2021/09/14 10:52:30;;;;;;;7.15;4.32;;;25.30;99.90;;;;;;5072430;28;20112;-69
2021/09/14 10:54:56;;;;;;;9.13;4.78;;;25.70;99.90;;;;;;5070889;28;20424;-69
2021/09/14 10:57:34;;;;;;;7.03;4.88;;;25.80;99.90;;;;;;5072159;28;20060;-69
2021/09/14 11:00:00;;;;;;;10.48;4.70;;;26.10;99.90;;;;;;5072219;28;20032;-69
2021/09/14 11:02:26;;;;;;;7.40;4.68;;;26.30;99.90;;;;;;5072242;28;20386;-69
2021/09/14 11:04:52;;;;;;;8.65;4.40;;;26.60;99.90;;;;;;5071764;28;20029;-69
2021/09/14 11:07:21;;;;;;;10.23;4.78;;;26.50;99.90;;;;;;5070839;28;20066;-69
2021/09/14 11:09:55;;;;;;;7.40;4.60;;;26.30;99.90;;;;;;5072094;28;20489;-69
2021/09/14 11:12:26;;;;;;;9.00;4.82;;;26.20;99.90;;;;;;5071988;28;20040;-69
2021/09/14 11:14:55;;;;;;;6.65;4.55;;;26.40;99.90;;;;;;5070350;28;20081;-70
2021/09/14 11:17:33;;;;;;;8.25;3.85;;;26.00;99.90;;;;;;5072257;28;20036;-70
2021/09/14 11:20:15;;;;;;;8.00;4.40;;;26.30;99.90;;;;;;5071021;28;20031;-68
2021/09/14 11:22:42;;;;;;;14.15;5.28;;;26.40;99.90;;;;;;5071894;28;20071;-69
2021/09/14 11:25:29;;;;;;;7.82;4.00;;;26.40;99.90;;;;;;5071927;28;20036;-69
2021/09/14 11:28:12;;;;;;;9.65;4.63;;;26.20;99.90;;;;;;5070435;28;20032;-69
2021/09/14 11:30:40;;;;;;;11.70;5.40;;;26.20;99.90;;;;;;5071816;28;20503;-70
2021/09/14 11:33:07;;;;;;;11.23;4.70;;;26.40;99.90;;;;;;5071889;28;20086;-69
2021/09/14 11:35:37;;;;;;;9.70;4.55;;;26.60;99.90;;;;;;5070467;28;20036;-68
2021/09/14 11:38:08;;;;;;;;;;;26.20;99.90;;;;;;5054493;28;20079;-68
2021/09/14 11:40:46;;;;;;;28.17;15.70;;;26.30;99.90;;;;;;5071209;28;19912;-68
2021/09/14 11:43:35;;;;;;;9.88;5.75;;;26.60;99.90;;;;;;5054086;28;20037;-68
2021/09/14 11:46:12;;;;;;;5.60;4.00;;;26.40;99.90;;;;;;5071814;28;20043;-68
2021/09/14 11:48:38;;;;;;;6.10;4.10;;;27.10;99.40;;;;;;5071180;28;20043;-68
2021/09/14 11:51:14;;;;;;;6.40;3.70;;;27.50;98.80;;;;;;5071425;28;20029;-68
2021/09/14 11:53:51;;;;;;;9.45;4.70;;;27.20;99.40;;;;;;5074104;28;20032;-69
2021/09/14 11:56:19;;;;;;;11.10;4.28;;;27.20;99.20;;;;;;5071412;28;20041;-67
2021/09/14 11:58:49;;;;;;;6.80;4.07;;;26.90;99.30;;;;;;5071587;28;20036;-68
2021/09/14 12:01:19;;;;;;;6.18;3.83;;;27.20;98.80;;;;;;5071403;28;20039;-69
2021/09/14 12:03:53;;;;;;;5.35;3.83;;;27.60;98.30;;;;;;5071522;28;20059;-70
2021/09/14 12:06:32;;;;;;;7.45;4.22;;;27.80;98.50;;;;;;5071715;28;20037;-69
2021/09/14 12:09:01;;;;;;;6.38;4.72;;;28.20;98.00;;;;;;5072051;28;20033;-69
2021/09/14 12:11:31;;;;;;;9.80;6.07;;;29.10;97.20;;;;;;5075190;28;20029;-68
2021/09/14 12:14:04;;;;;;;7.20;3.72;;;29.90;96.40;;;;;;5057464;28;20469;-69
2021/09/14 12:16:36;;;;;;;5.53;3.78;;;29.70;96.20;;;;;;5073529;28;20048;-69
2021/09/14 12:19:02;;;;;;;7.63;4.43;;;30.90;94.70;;;;;;5073578;28;20089;-69
2021/09/14 12:21:28;;;;;;;7.07;4.05;;;31.70;93.50;;;;;;5075122;28;20078;-68
2021/09/14 12:23:55;;;;;;;15.93;4.70;;;32.00;92.30;;;;;;5056925;28;20501;-68
2021/09/14 12:26:26;;;;;;;7.13;4.53;;;31.10;92.70;;;;;;5074473;28;20485;-69
2021/09/14 12:28:55;;;;;;;5.95;3.88;;;32.70;91.30;;;;;;5073563;28;20040;-68
2021/09/14 12:31:21;;;;;;;6.93;4.00;;;31.20;91.80;;;;;;5074708;28;20070;-69
2021/09/14 12:33:48;;;;;;;5.10;3.65;;;29.70;93.40;;;;;;5073341;28;20040;-75
2021/09/14 12:36:14;;;;;;;9.82;4.38;;;28.70;95.30;;;;;;5073449;28;20029;-73
2021/09/14 12:38:40;;;;;;;7.85;3.97;;;29.00;95.00;;;;;;5074395;28;20078;-73
2021/09/14 12:41:07;;;;;;;8.05;4.25;;;28.50;96.10;;;;;;5074377;28;20116;-75
2021/09/14 12:43:34;;;;;;;12.07;4.85;;;28.90;95.10;;;;;;5074168;28;20035;-71
2021/09/14 12:46:00;;;;;;;7.97;4.55;;;29.00;95.60;;;;;;5081673;28;20463;-70
2021/09/14 12:48:26;;;;;;;9.15;4.32;;;28.90;95.40;;;;;;5085747;28;20370;-71
2021/09/14 12:50:52;;;;;;;4.85;3.42;;;30.00;94.90;;;;;;5092919;28;20031;-72
2021/09/14 12:53:18;;;;;;;5.57;3.38;;;29.50;94.90;;;;;;5073086;28;20032;-71
2021/09/14 12:55:44;;;;;;;6.22;3.58;;;30.30;94.30;;;;;;5074336;28;20055;-71
2021/09/14 12:58:10;;;;;;;6.80;3.70;;;31.20;93.20;;;;;;5074576;28;20029;-71
2021/09/14 13:00:38;;;;;;;4.72;2.83;;;29.90;93.50;;;;;;5074195;28;20044;-71
2021/09/14 13:03:04;;;;;;;6.80;3.60;;;30.50;93.80;;;;;;5073926;28;20028;-72
2021/09/14 13:05:32;;;;;;;7.57;3.90;;;30.50;93.60;;;;;;5072847;28;20435;-71
2021/09/14 13:07:58;;;;;;;4.63;3.10;;;30.30;93.10;;;;;;5074067;28;20111;-71
2021/09/14 13:10:24;;;;;;;6.93;3.17;;;30.80;93.00;;;;;;5074409;28;20036;-72
2021/09/14 13:16:10;;;;;;;6.07;3.58;;;31.10;92.30;;;;;;5073752;28;20028;-72
2021/09/14 13:18:24;;;;;;;8.13;5.07;;;31.60;92.50;;;;;;5072962;28;20110;-72
2021/09/14 13:20:50;;;;;;;10.02;6.03;;;32.20;91.70;;;;;;5072965;28;20058;-72
2021/09/14 13:23:15;;;;;;;7.20;3.40;;;32.40;91.40;;;;;;5073895;28;20029;-71
2021/09/14 13:25:42;;;;;;;12.85;7.80;;;30.70;92.60;;;;;;5073883;28;20401;-71
2021/09/14 13:28:08;;;;;;;8.18;4.18;;;31.70;92.00;;;;;;5073590;28;20024;-71
2021/09/14 13:30:34;;;;;;;5.38;3.10;;;30.70;92.80;;;;;;5073577;28;20035;-72
2021/09/14 13:33:00;;;;;;;6.15;3.20;;;30.30;92.90;;;;;;5073574;28;20103;-71
2021/09/14 13:35:26;;;;;;;4.70;3.17;;;30.40;93.40;;;;;;5073767;28;20158;-72
2021/09/14 13:37:53;;;;;;;9.25;3.80;;;30.80;92.40;;;;;;5072150;28;20047;-72
2021/09/14 13:40:18;;;;;;;9.20;3.40;;;30.00;92.80;;;;;;5072123;28;20033;-72
2021/09/14 13:42:52;;;;;;;7.75;3.33;;;29.70;93.60;;;;;;5073099;28;20024;-72